Time;durP1;ratioP1;P1;durP2;ratioP2;P2;SDS_P1;SDS_P2;PMS_P1;PMS_P2;Temp;Humidity;BMP_temperature;BMP_pressure;BME280_temperature;BME280_humidity;BME280_pressure;Samples;Min_cycle;Max_cycle;Signal;HPM_P1;HPM_P2
2022/05/01 00:00:06;;;;;;;4.45;2.58;;;8.70;99.90;;;;;;5047971;28;20044;-73
2022/05/01 00:02:32;;;;;;;6.20;2.83;;;8.70;99.90;;;;;;5046026;28;20462;-73
2022/05/01 00:04:58;;;;;;;6.57;3.38;;;8.70;99.90;;;;;;5063098;28;20075;-73
2022/05/01 00:07:23;;;;;;;4.82;2.58;;;8.70;99.90;;;;;;5066351;28;20394;-73
2022/05/01 00:09:49;;;;;;;7.25;2.72;;;8.80;99.90;;;;;;5044818;28;20037;-73
2022/05/01 00:12:15;;;;;;;5.82;3.17;;;8.70;99.90;;;;;;5065667;28;20051;-73
2022/05/01 00:14:40;;;;;;;4.25;2.45;;;8.70;99.90;;;;;;5063942;28;20040;-73
2022/05/01 00:17:06;;;;;;;6.57;3.03;;;8.70;99.90;;;;;;5065658;28;20044;-73
2022/05/01 00:19:32;;;;;;;5.57;2.70;;;8.70;99.90;;;;;;5063499;28;20036;-73
2022/05/01 00:21:59;;;;;;;5.93;3.22;;;8.70;99.90;;;;;;5047586;28;20071;-73
2022/05/01 00:24:25;;;;;;;5.82;2.97;;;8.70;99.90;;;;;;5048167;28;20398;-73
2022/05/01 00:26:51;;;;;;;7.68;3.10;;;8.60;99.90;;;;;;5065336;28;20558;-74
2022/05/01 00:29:17;;;;;;;9.27;3.15;;;8.60;99.90;;;;;;5064991;28;20048;-73
2022/05/01 00:31:42;;;;;;;6.05;3.65;;;8.60;99.90;;;;;;5063103;28;20033;-73
2022/05/01 00:36:52;;;;;;;7.20;3.60;;;8.60;99.90;;;;;;5065413;28;20418;-73
2022/05/01 00:39:18;;;;;;;5.43;2.53;;;8.60;99.90;;;;;;5065246;28;20044;-74
2022/05/01 00:41:45;;;;;;;6.03;3.17;;;8.60;99.90;;;;;;5062578;28;20036;-73
2022/05/01 00:44:12;;;;;;;4.78;3.22;;;8.60;99.90;;;;;;5065612;28;20425;-73
2022/05/01 00:46:48;;;;;;;5.35;2.60;;;8.60;99.90;;;;;;5060191;28;20582;-73
2022/05/01 00:49:19;;;;;;;4.95;2.17;;;8.60;99.90;;;;;;5066029;28;20040;-73
2022/05/01 00:51:49;;;;;;;7.22;3.30;;;8.60;99.90;;;;;;5047485;28;20048;-73
2022/05/01 00:54:21;;;;;;;5.18;2.97;;;8.60;99.90;;;;;;5064951;28;20048;-73
2022/05/01 00:56:50;;;;;;;5.82;3.75;;;8.60;99.90;;;;;;5060382;28;20041;-73
2022/05/01 00:59:17;;;;;;;5.85;2.90;;;8.50;99.90;;;;;;5048626;28;20295;-73
2022/05/01 01:01:44;;;;;;;5.55;3.05;;;8.50;99.90;;;;;;5063890;28;20044;-73
2022/05/01 01:04:10;;;;;;;4.85;2.42;;;8.50;99.90;;;;;;5045811;28;20046;-73
2022/05/01 01:06:39;;;;;;;5.85;3.17;;;8.50;99.90;;;;;;5063822;28;20117;-73
2022/05/01 01:09:06;;;;;;;7.88;3.33;;;8.50;99.90;;;;;;5063811;28;20135;-73
2022/05/01 01:11:31;;;;;;;11.57;3.63;;;8.50;99.90;;;;;;5062946;28;20040;-73
2022/05/01 01:13:59;;;;;;;4.45;2.22;;;8.50;99.90;;;;;;5063597;28;20036;-74
2022/05/01 01:16:25;;;;;;;6.95;3.38;;;8.50;99.90;;;;;;5065472;28;20251;-73
2022/05/01 01:18:51;;;;;;;5.57;3.40;;;8.40;99.90;;;;;;5047510;28;20052;-73
2022/05/01 01:21:18;;;;;;;6.82;3.05;;;8.50;99.90;;;;;;5046268;28;20032;-73
2022/05/01 01:23:44;;;;;;;5.13;2.88;;;8.50;99.90;;;;;;5046739;28;20430;-73
2022/05/01 01:26:12;;;;;;;5.95;3.38;;;8.50;99.90;;;;;;5064463;28;20047;-73
2022/05/01 01:28:40;;;;;;;5.13;3.20;;;8.50;99.90;;;;;;5063814;28;20029;-73
2022/05/01 01:33:53;;;;;;;5.85;3.13;;;8.40;99.90;;;;;;5062910;28;20082;-73
2022/05/01 01:36:23;;;;;;;5.43;3.30;;;8.40;99.90;;;;;;5048263;28;20064;-73
2022/05/01 01:38:49;;;;;;;6.50;3.28;;;8.40;99.90;;;;;;5071132;28;20555;-73
2022/05/01 01:41:20;;;;;;;6.25;3.70;;;8.40;99.90;;;;;;5071672;28;20045;-73
2022/05/01 01:43:46;;;;;;;5.90;3.47;;;8.40;99.90;;;;;;5069476;28;20555;-73
2022/05/01 01:46:12;;;;;;;4.93;2.83;;;8.40;99.90;;;;;;5069776;28;20048;-73
2022/05/01 01:48:37;;;;;;;4.20;2.97;;;8.40;99.90;;;;;;5051735;28;20762;-73
2022/05/01 01:51:04;;;;;;;3.78;2.42;;;8.40;99.90;;;;;;5071393;28;20036;-73
2022/05/01 01:53:31;;;;;;;3.63;2.00;;;8.30;99.90;;;;;;5069576;28;20044;-73
2022/05/01 01:55:58;;;;;;;5.13;2.55;;;8.30;99.90;;;;;;5069319;28;20068;-72
2022/05/01 01:58:25;;;;;;;6.82;3.10;;;8.30;99.90;;;;;;5067577;28;20033;-73
2022/05/01 02:00:51;;;;;;;5.28;2.92;;;8.30;99.90;;;;;;5051495;28;20520;-73
2022/05/01 02:03:17;;;;;;;5.57;3.08;;;8.20;99.90;;;;;;5053456;28;20052;-73
2022/05/01 02:05:43;;;;;;;7.53;3.80;;;8.20;99.90;;;;;;5052543;28;20040;-73
2022/05/01 02:08:09;;;;;;;5.85;3.33;;;8.20;99.90;;;;;;5069052;28;20567;-74
2022/05/01 02:10:35;;;;;;;5.28;2.85;;;8.20;99.90;;;;;;5071187;28;20054;-73
2022/05/01 02:13:01;;;;;;;7.50;3.30;;;8.20;99.90;;;;;;5049069;28;20089;-73
2022/05/01 02:15:30;;;;;;;7.05;3.22;;;8.20;99.90;;;;;;5069638;28;20040;-73
2022/05/01 02:17:58;;;;;;;9.90;3.28;;;8.20;99.90;;;;;;5070377;28;20038;-73
2022/05/01 02:20:25;;;;;;;5.07;2.88;;;8.20;99.90;;;;;;5050485;28;20542;-74
2022/05/01 02:22:52;;;;;;;6.30;3.33;;;8.20;99.90;;;;;;5053373;28;20032;-73
2022/05/01 02:25:21;;;;;;;4.88;2.65;;;8.20;99.90;;;;;;5052006;28;20610;-74
2022/05/01 02:27:47;;;;;;;4.75;2.67;;;8.10;99.90;;;;;;5070383;28;20054;-73
2022/05/01 02:30:13;;;;;;;3.97;2.92;;;8.10;99.90;;;;;;5066880;28;20580;-73
2022/05/01 02:32:39;;;;;;;6.05;3.60;;;8.10;99.90;;;;;;5071258;28;20536;-73
2022/05/01 02:35:07;;;;;;;5.90;2.63;;;8.10;99.90;;;;;;5065222;28;20037;-72
2022/05/01 02:37:33;;;;;;;7.15;3.75;;;8.10;99.90;;;;;;5070374;28;20071;-73
2022/05/01 02:39:58;;;;;;;7.47;3.50;;;8.10;99.90;;;;;;5051463;28;20607;-73
2022/05/01 02:42:24;;;;;;;6.25;3.03;;;8.10;99.90;;;;;;5070680;28;20032;-73
2022/05/01 02:44:50;;;;;;;4.28;2.72;;;8.10;99.90;;;;;;5068498;28;20029;-73
2022/05/01 02:47:15;;;;;;;4.50;2.30;;;8.00;99.90;;;;;;5068304;28;20699;-73
2022/05/01 02:49:42;;;;;;;5.05;2.53;;;8.00;99.90;;;;;;5050414;28;20406;-73
2022/05/01 02:52:08;;;;;;;5.82;3.05;;;7.90;99.90;;;;;;5066886;28;20056;-73
2022/05/01 02:54:34;;;;;;;5.40;2.75;;;8.00;99.90;;;;;;5067451;28;20513;-73
2022/05/01 02:57:00;;;;;;;6.72;3.22;;;8.00;99.90;;;;;;5067967;28;20044;-73
2022/05/01 02:59:26;;;;;;;5.10;2.75;;;7.90;99.90;;;;;;5050572;28;20098;-73
2022/05/01 03:01:51;;;;;;;6.95;3.40;;;7.90;99.90;;;;;;5069144;28;20615;-73
2022/05/01 03:04:17;;;;;;;8.68;3.03;;;7.90;99.90;;;;;;5050684;28;20052;-73
2022/05/01 03:06:43;;;;;;;9.20;3.55;;;7.90;99.90;;;;;;5068624;28;20032;-74
2022/05/01 03:09:08;;;;;;;5.05;2.83;;;7.90;99.90;;;;;;5066935;28;20788;-74
2022/05/01 03:11:35;;;;;;;7.07;3.22;;;7.90;99.90;;;;;;5066211;28;20608;-73
2022/05/01 03:14:02;;;;;;;4.43;2.72;;;7.80;99.90;;;;;;5060938;28;20051;-73
2022/05/01 03:16:27;;;;;;;6.47;3.13;;;7.80;99.90;;;;;;5068593;28;20050;-73
2022/05/01 03:24:21;;;;;;;5.57;2.95;;;7.60;99.90;;;;;;5068537;28;20048;-73
2022/05/01 03:26:47;;;;;;;6.88;3.80;;;7.60;99.90;;;;;;5051809;28;20486;-74
2022/05/01 03:29:14;;;;;;;4.90;3.10;;;7.60;99.90;;;;;;5066836;28;20119;-73
2022/05/01 03:31:40;;;;;;;4.97;2.88;;;7.60;99.90;;;;;;5050886;28;20116;-73
2022/05/01 03:34:06;;;;;;;5.38;2.92;;;7.50;99.90;;;;;;5068451;28;20509;-74
2022/05/01 03:36:32;;;;;;;6.32;3.35;;;7.50;99.90;;;;;;5082794;28;20037;-73
2022/05/01 03:38:59;;;;;;;5.30;2.75;;;7.40;99.90;;;;;;5066937;28;20040;-73
2022/05/01 03:41:26;;;;;;;7.03;3.58;;;7.40;99.90;;;;;;5068153;28;20055;-74
2022/05/01 03:43:52;;;;;;;6.80;3.20;;;7.40;99.90;;;;;;5064189;28;20064;-73
2022/05/01 03:46:20;;;;;;;9.15;4.13;;;7.40;99.90;;;;;;5051428;28;20091;-73
2022/05/01 03:48:46;;;;;;;5.55;3.22;;;7.30;99.90;;;;;;5067259;28;20169;-74
2022/05/01 03:51:12;;;;;;;8.48;4.05;;;7.30;99.90;;;;;;5067612;28;20052;-73
2022/05/01 03:53:38;;;;;;;6.25;3.65;;;7.30;99.90;;;;;;5049605;28;20068;-73
2022/05/01 03:56:04;;;;;;;7.13;3.15;;;7.20;99.90;;;;;;5051642;28;20072;-74
2022/05/01 03:58:30;;;;;;;4.95;2.53;;;7.10;99.90;;;;;;5065529;28;20040;-74
2022/05/01 04:00:56;;;;;;;4.22;2.65;;;7.10;99.90;;;;;;5048790;28;20452;-73
2022/05/01 04:03:22;;;;;;;5.68;3.42;;;7.00;99.90;;;;;;5048380;28;20056;-73
2022/05/01 04:05:48;;;;;;;5.60;2.78;;;6.90;99.90;;;;;;5067735;28;20085;-73
2022/05/01 04:08:14;;;;;;;5.53;2.72;;;6.90;99.90;;;;;;5066356;28;20123;-74
2022/05/01 04:10:42;;;;;;;6.15;3.67;;;6.90;99.90;;;;;;5068254;28;20052;-74
2022/05/01 04:13:09;;;;;;;6.68;3.17;;;6.80;99.90;;;;;;5064466;28;20091;-73
2022/05/01 04:15:36;;;;;;;9.90;3.78;;;6.90;99.90;;;;;;5049999;28;20043;-73
2022/05/01 04:18:06;;;;;;;6.20;3.60;;;6.90;99.90;;;;;;5066052;28;20055;-73
2022/05/01 04:20:38;;;;;;;3.90;2.45;;;6.90;99.90;;;;;;5065707;28;20052;-73
2022/05/01 04:23:05;;;;;;;5.05;2.97;;;6.90;99.90;;;;;;5065544;28;20072;-73
2022/05/01 04:25:31;;;;;;;6.10;3.45;;;6.80;99.90;;;;;;5055046;28;20170;-73
2022/05/01 04:28:01;;;;;;;4.53;2.60;;;6.80;99.90;;;;;;5045913;28;20134;-74
2022/05/01 04:30:28;;;;;;;4.97;2.40;;;6.80;99.90;;;;;;5065770;28;20059;-73
2022/05/01 04:33:02;;;;;;;6.55;3.40;;;6.80;99.90;;;;;;5065414;28;20051;-73
2022/05/01 04:35:29;;;;;;;4.90;2.65;;;6.80;99.90;;;;;;5050349;28;20047;-74
2022/05/01 04:37:59;;;;;;;5.93;3.22;;;6.80;99.90;;;;;;5050065;28;20036;-74
2022/05/01 04:40:28;;;;;;;6.45;3.05;;;6.80;99.90;;;;;;5040576;28;20045;-74
2022/05/01 04:43:01;;;;;;;7.60;3.40;;;6.80;99.90;;;;;;5053034;28;20040;-73
2022/05/01 04:45:28;;;;;;;6.78;3.75;;;6.80;99.90;;;;;;5065301;28;20048;-74
2022/05/01 04:47:54;;;;;;;6.85;3.90;;;6.90;99.90;;;;;;5047936;28;20086;-73
2022/05/01 04:50:20;;;;;;;7.47;3.53;;;6.90;99.90;;;;;;5066341;28;20094;-73
2022/05/01 04:52:46;;;;;;;7.03;3.95;;;6.80;99.90;;;;;;5066775;28;20036;-74
2022/05/01 04:55:11;;;;;;;6.97;3.88;;;6.80;99.90;;;;;;5066799;28;20068;-74
2022/05/01 04:57:39;;;;;;;6.40;3.55;;;6.80;99.90;;;;;;5065562;28;20024;-73
2022/05/01 05:00:06;;;;;;;8.80;3.75;;;6.80;99.90;;;;;;5063845;28;20120;-73
2022/05/01 05:02:41;;;;;;;5.93;3.33;;;6.80;99.90;;;;;;5049358;28;20191;-73
2022/05/01 05:05:09;;;;;;;6.90;3.40;;;6.80;99.90;;;;;;5053865;28;20098;-74
2022/05/01 05:07:36;;;;;;;6.53;3.30;;;6.90;99.90;;;;;;5048838;28;20051;-73
2022/05/01 05:10:02;;;;;;;7.40;3.78;;;6.90;99.90;;;;;;5066474;28;20513;-73
2022/05/01 05:12:28;;;;;;;6.65;3.58;;;6.90;99.90;;;;;;5065319;28;20414;-73
2022/05/01 05:14:58;;;;;;;6.13;3.33;;;6.80;99.90;;;;;;5046962;28;20044;-73
2022/05/01 05:17:24;;;;;;;7.43;3.80;;;6.80;99.90;;;;;;5053378;28;20517;-73
2022/05/01 05:19:50;;;;;;;7.63;4.20;;;6.80;99.90;;;;;;5059824;28;20090;-73
2022/05/01 05:22:16;;;;;;;8.07;3.97;;;6.80;99.90;;;;;;5053368;28;20059;-73
2022/05/01 05:24:42;;;;;;;5.63;3.47;;;6.80;99.90;;;;;;5066123;28;20497;-73
2022/05/01 05:27:08;;;;;;;6.72;3.28;;;6.80;99.90;;;;;;5049238;28;20044;-73
2022/05/01 05:29:33;;;;;;;8.45;3.92;;;6.80;99.90;;;;;;5064354;28;20040;-73
2022/05/01 05:31:59;;;;;;;7.97;4.22;;;6.80;99.90;;;;;;5066533;28;20047;-73
2022/05/01 05:34:26;;;;;;;7.28;4.50;;;6.90;99.90;;;;;;5047920;28;20032;-73
2022/05/01 05:36:51;;;;;;;5.60;3.00;;;7.30;99.90;;;;;;5047811;28;20040;-74
2022/05/01 05:39:17;;;;;;;6.40;3.53;;;8.00;99.90;;;;;;5065858;28;20036;-73
2022/05/01 05:41:43;;;;;;;9.23;4.97;;;8.40;99.90;;;;;;5065749;28;20028;-74
2022/05/01 05:44:09;;;;;;;7.80;3.50;;;8.40;99.90;;;;;;5047246;28;20033;-73
2022/05/01 05:46:35;;;;;;;7.05;3.72;;;8.30;99.90;;;;;;5066512;28;20048;-73
2022/05/01 05:49:00;;;;;;;6.93;3.55;;;8.10;99.90;;;;;;5048184;28;20025;-74
2022/05/01 05:51:26;;;;;;;7.35;4.13;;;8.00;99.90;;;;;;5066993;28;20048;-74
2022/05/01 05:53:53;;;;;;;7.32;3.95;;;7.90;99.90;;;;;;5065439;28;20041;-74
2022/05/01 05:56:19;;;;;;;8.70;3.38;;;7.90;99.90;;;;;;5066535;28;20036;-74
2022/05/01 05:58:45;;;;;;;8.07;3.78;;;7.80;99.90;;;;;;5060891;28;20039;-73
2022/05/01 06:01:11;;;;;;;6.55;3.85;;;7.80;99.90;;;;;;5063647;28;20036;-74
2022/05/01 06:03:38;;;;;;;7.07;4.22;;;7.70;99.90;;;;;;5066151;28;20044;-74
2022/05/01 06:06:04;;;;;;;6.50;3.83;;;7.70;99.90;;;;;;5048729;28;20040;-73
2022/05/01 06:08:29;;;;;;;9.02;3.70;;;7.70;99.90;;;;;;5048088;28;20047;-74
2022/05/01 06:10:55;;;;;;;9.00;3.75;;;7.70;99.90;;;;;;5062117;28;20041;-74
2022/05/01 06:13:21;;;;;;;5.88;3.15;;;7.80;99.90;;;;;;5064472;28;20500;-74
2022/05/01 06:15:47;;;;;;;8.57;3.85;;;7.80;99.90;;;;;;5049221;28;20041;-74
2022/05/01 06:18:13;;;;;;;8.15;3.72;;;7.80;99.90;;;;;;5048090;28;20032;-73
2022/05/01 06:20:39;;;;;;;6.93;4.15;;;7.90;99.90;;;;;;5063789;28;20037;-74
2022/05/01 06:23:05;;;;;;;7.03;3.63;;;7.90;99.90;;;;;;5049308;28;20398;-74
2022/05/01 06:25:31;;;;;;;4.82;3.17;;;8.30;99.90;;;;;;5068251;28;20043;-74
2022/05/01 06:27:56;;;;;;;7.13;3.95;;;9.30;99.90;;;;;;5068955;28;20048;-74
2022/05/01 06:30:22;;;;;;;6.25;3.58;;;10.30;99.90;;;;;;5068788;28;20044;-74
2022/05/01 06:32:49;;;;;;;7.00;3.28;;;10.90;99.90;;;;;;5067654;28;20024;-74
2022/05/01 06:35:16;;;;;;;4.90;2.53;;;10.90;99.90;;;;;;5067768;28;20036;-74
2022/05/01 06:37:42;;;;;;;5.88;3.42;;;10.70;99.90;;;;;;5045733;28;20048;-74
2022/05/01 06:40:08;;;;;;;3.13;2.00;;;10.40;99.90;;;;;;5067877;28;20056;-76
2022/05/01 06:42:34;;;;;;;7.22;2.90;;;10.30;99.90;;;;;;5050395;28;20066;-74
2022/05/01 06:45:02;;;;;;;4.68;2.53;;;10.10;99.90;;;;;;5067424;28;20110;-73
2022/05/01 06:47:27;;;;;;;4.38;2.13;;;10.00;99.90;;;;;;5066797;28;20047;-74
2022/05/01 06:49:53;;;;;;;3.17;1.92;;;10.00;99.90;;;;;;5069096;28;20044;-74
2022/05/01 06:52:23;;;;;;;3.75;1.88;;;9.90;99.90;;;;;;5067500;28;20036;-74
2022/05/01 06:54:55;;;;;;;3.45;1.85;;;9.80;99.90;;;;;;5047939;28;20048;-73
2022/05/01 06:57:21;;;;;;;5.55;2.75;;;9.70;99.90;;;;;;5048705;28;20040;-74
2022/05/01 06:59:46;;;;;;;3.25;2.00;;;9.70;99.90;;;;;;5059500;28;20079;-73
2022/05/01 07:02:14;;;;;;;2.58;1.63;;;9.60;99.90;;;;;;5062156;28;20079;-74
2022/05/01 07:04:40;;;;;;;3.45;1.90;;;9.70;99.90;;;;;;5042617;28;20044;-74
2022/05/01 07:07:05;;;;;;;4.32;2.40;;;9.60;99.90;;;;;;5047547;28;20049;-74
2022/05/01 07:09:31;;;;;;;3.35;1.80;;;9.60;99.90;;;;;;5062287;28;20063;-73
2022/05/01 07:11:57;;;;;;;4.47;2.00;;;9.60;99.90;;;;;;5048078;28;20052;-74
2022/05/01 07:14:23;;;;;;;3.78;2.10;;;9.60;99.90;;;;;;5064800;28;20378;-74
2022/05/01 07:16:49;;;;;;;5.38;2.47;;;9.60;99.90;;;;;;5064280;28;20043;-74
2022/05/01 07:19:15;;;;;;;2.63;1.80;;;9.60;99.90;;;;;;5064592;28;20460;-74
2022/05/01 07:21:41;;;;;;;3.88;1.52;;;9.70;99.90;;;;;;5064916;28;20033;-73
2022/05/01 07:24:07;;;;;;;4.35;1.83;;;9.80;99.90;;;;;;5048172;28;20395;-74
2022/05/01 07:26:33;;;;;;;4.68;2.63;;;9.90;99.90;;;;;;5047961;28;20036;-74
2022/05/01 07:29:03;;;;;;;2.72;1.65;;;9.90;99.90;;;;;;5057482;28;20048;-74
2022/05/01 07:31:29;;;;;;;3.13;1.38;;;9.80;99.90;;;;;;5044999;28;20062;-74
2022/05/01 07:33:56;;;;;;;4.70;2.22;;;9.80;99.90;;;;;;5061729;28;20506;-74
2022/05/01 07:36:23;;;;;;;2.55;1.73;;;9.80;99.90;;;;;;5061669;28;20777;-75
2022/05/01 07:38:49;;;;;;;2.67;1.75;;;9.70;99.90;;;;;;5060762;28;20060;-73
2022/05/01 07:41:18;;;;;;;3.15;1.60;;;9.70;99.90;;;;;;5049830;28;20600;-73
2022/05/01 07:43:47;;;;;;;2.85;1.85;;;9.70;99.90;;;;;;5045888;28;20076;-74
2022/05/01 07:46:13;;;;;;;2.78;1.30;;;9.80;99.90;;;;;;5066547;28;20151;-73
2022/05/01 07:48:39;;;;;;;1.98;1.35;;;9.80;99.90;;;;;;5050552;28;20139;-73
2022/05/01 07:51:05;;;;;;;5.13;1.83;;;9.80;99.90;;;;;;5047497;28;20044;-73
2022/05/01 07:53:33;;;;;;;3.10;1.65;;;9.90;99.90;;;;;;5061320;28;20036;-74
2022/05/01 07:55:59;;;;;;;3.33;1.40;;;10.00;99.90;;;;;;5064508;28;20085;-74
2022/05/01 07:58:25;;;;;;;3.42;1.80;;;10.00;99.90;;;;;;5060109;28;20024;-73
2022/05/01 08:00:51;;;;;;;2.80;1.42;;;10.10;99.90;;;;;;5061264;28;20059;-73
2022/05/01 08:06:01;;;;;;;3.22;1.67;;;10.10;99.90;;;;;;5058532;28;20052;-73
2022/05/01 08:08:33;;;;;;;2.80;1.58;;;10.20;99.90;;;;;;5045815;28;20048;-73
2022/05/01 08:10:59;;;;;;;2.67;1.40;;;10.30;99.90;;;;;;5063293;28;20041;-73
2022/05/01 08:13:25;;;;;;;2.95;1.58;;;10.30;99.90;;;;;;5063739;28;20068;-73
2022/05/01 08:15:50;;;;;;;2.95;2.03;;;10.30;99.90;;;;;;5045958;28;20116;-73
2022/05/01 08:21:08;;;;;;;6.13;2.55;;;10.40;99.90;;;;;;5036251;28;20040;-73
2022/05/01 08:23:36;;;;;;;3.20;1.48;;;10.40;99.90;;;;;;5063616;28;20082;-73
2022/05/01 08:26:06;;;;;;;1.90;1.27;;;10.50;99.90;;;;;;5061839;28;20059;-73
2022/05/01 08:28:36;;;;;;;2.63;1.55;;;10.50;99.90;;;;;;5063682;28;20044;-73
2022/05/01 08:31:03;;;;;;;2.92;1.50;;;10.50;98.90;;;;;;5044092;28;20119;-73
2022/05/01 08:33:29;;;;;;;3.33;1.40;;;10.50;99.20;;;;;;5061819;28;20574;-73
2022/05/01 08:35:55;;;;;;;2.85;1.45;;;10.50;99.50;;;;;;5062702;28;20115;-73
2022/05/01 08:38:21;;;;;;;4.47;2.03;;;10.50;99.10;;;;;;5065006;28;20140;-73
2022/05/01 08:40:48;;;;;;;3.90;2.00;;;10.50;99.20;;;;;;5061695;28;20131;-73
2022/05/01 08:43:22;;;;;;;3.00;1.67;;;10.50;99.90;;;;;;5044434;28;20044;-73
2022/05/01 08:45:53;;;;;;;3.05;1.90;;;10.50;99.90;;;;;;5061313;28;20051;-73
2022/05/01 08:48:35;;;;;;;3.90;2.10;;;10.50;99.90;;;;;;5064078;28;20044;-73
2022/05/01 08:51:04;;;;;;;3.53;1.52;;;10.60;99.70;;;;;;5059539;28;20049;-73
2022/05/01 08:53:31;;;;;;;4.53;2.28;;;10.60;99.20;;;;;;5061112;28;20036;-73
2022/05/01 08:55:58;;;;;;;3.15;1.67;;;10.50;99.50;;;;;;5063742;28;20056;-73
2022/05/01 08:58:26;;;;;;;3.40;1.55;;;10.60;99.80;;;;;;5060871;28;20543;-73
2022/05/01 09:00:52;;;;;;;2.50;1.25;;;10.60;99.10;;;;;;5058447;28;20521;-73
2022/05/01 09:03:18;;;;;;;2.83;1.20;;;10.60;99.30;;;;;;5061524;28;20501;-73
2022/05/01 09:05:44;;;;;;;2.45;1.17;;;10.60;98.90;;;;;;5040396;28;20116;-73
2022/05/01 09:08:10;;;;;;;2.95;1.33;;;10.70;99.40;;;;;;5056028;28;20036;-73
2022/05/01 09:10:39;;;;;;;3.28;1.17;;;10.70;99.50;;;;;;5059343;28;20086;-73
2022/05/01 09:13:06;;;;;;;2.65;1.52;;;10.80;98.50;;;;;;5064189;28;20049;-73
2022/05/01 09:15:33;;;;;;;3.13;1.35;;;10.90;98.70;;;;;;5062866;28;20056;-74
2022/05/01 09:18:01;;;;;;;2.35;1.27;;;10.90;98.90;;;;;;5060634;28;20502;-74
2022/05/01 09:20:27;;;;;;;1.90;1.00;;;11.10;99.10;;;;;;5060343;28;20155;-74
2022/05/01 09:22:54;;;;;;;2.67;1.40;;;11.10;98.40;;;;;;5040115;28;20474;-73
2022/05/01 09:25:28;;;;;;;2.30;1.27;;;11.20;97.50;;;;;;5060368;28;20044;-73
2022/05/01 09:27:59;;;;;;;3.03;1.48;;;11.20;97.70;;;;;;5062662;28;20075;-73
2022/05/01 09:30:36;;;;;;;2.03;1.25;;;11.20;97.90;;;;;;5044335;28;20032;-71
2022/05/01 09:33:02;;;;;;;3.47;1.63;;;11.30;97.40;;;;;;5061779;28;20045;-73
2022/05/01 09:35:35;;;;;;;2.38;1.17;;;11.40;98.30;;;;;;5057510;28;20028;-73
2022/05/01 09:38:26;;;;;;;4.22;1.65;;;11.50;97.10;;;;;;5055603;28;20608;-73
2022/05/01 09:41:01;;;;;;;2.55;1.35;;;11.60;95.70;;;;;;5039570;28;20045;-73
2022/05/01 09:43:46;;;;;;;6.25;1.85;;;11.60;96.60;;;;;;5045331;28;20378;-73
2022/05/01 09:46:20;;;;;;;2.35;1.17;;;11.70;96.40;;;;;;5063708;28;20535;-74
2022/05/01 09:49:10;;;;;;;2.47;1.23;;;11.70;96.40;;;;;;5045240;28;20336;-73
2022/05/01 09:51:46;;;;;;;4.75;1.33;;;11.80;96.00;;;;;;5036977;28;20076;-72
2022/05/01 09:54:31;;;;;;;3.45;1.60;;;11.80;96.90;;;;;;5044020;28;20040;-73
2022/05/01 09:56:58;;;;;;;4.30;1.20;;;11.80;93.60;;;;;;5061117;28;20059;-73
2022/05/01 09:59:25;;;;;;;3.63;1.73;;;11.80;94.60;;;;;;5061624;28;20079;-74
2022/05/01 10:02:02;;;;;;;3.38;1.65;;;11.80;94.80;;;;;;5064387;28;20077;-73
2022/05/01 10:04:29;;;;;;;4.10;1.70;;;11.80;93.80;;;;;;5063901;28;20036;-73
2022/05/01 10:06:57;;;;;;;3.13;1.42;;;11.80;94.20;;;;;;5059142;28;20044;-73
2022/05/01 10:09:25;;;;;;;2.35;1.20;;;11.80;94.00;;;;;;5056386;28;20041;-73
2022/05/01 10:11:57;;;;;;;2.28;1.40;;;11.80;94.10;;;;;;5044639;28;20482;-73
2022/05/01 10:14:24;;;;;;;4.32;1.55;;;11.80;93.80;;;;;;5059296;28;20478;-73
2022/05/01 10:16:50;;;;;;;4.65;1.63;;;11.80;93.60;;;;;;5059836;28;20382;-73
2022/05/01 10:19:17;;;;;;;3.03;1.20;;;11.80;94.00;;;;;;5060782;28;20040;-74
2022/05/01 10:21:48;;;;;;;1.67;0.90;;;11.80;93.90;;;;;;5041895;28;20079;-74
2022/05/01 10:24:15;;;;;;;4.25;1.50;;;11.80;94.10;;;;;;5063992;28;20047;-74
2022/05/01 10:27:10;;;;;;;4.00;1.20;;;11.80;93.40;;;;;;5062263;28;20029;-74
2022/05/01 10:33:10;;;;;;;2.60;1.23;;;11.90;93.80;;;;;;5060320;28;20170;-73
2022/05/01 10:36:15;;;;;;;2.80;1.67;;;11.90;93.70;;;;;;5061791;28;20359;-73
2022/05/01 10:39:06;;;;;;;3.17;1.52;;;12.10;93.00;;;;;;5044146;28;20048;-73
2022/05/01 10:41:33;;;;;;;2.85;1.10;;;12.10;91.80;;;;;;5063715;28;20058;-73
2022/05/01 10:44:01;;;;;;;2.15;1.30;;;12.20;93.70;;;;;;5061435;28;20089;-73
2022/05/01 10:46:32;;;;;;;4.47;1.38;;;12.20;93.60;;;;;;5063464;28;20055;-73
2022/05/01 10:49:02;;;;;;;2.83;1.20;;;12.20;93.00;;;;;;5066024;28;20047;-73
2022/05/01 10:51:30;;;;;;;2.78;1.30;;;12.30;93.10;;;;;;5045048;28;20079;-73
2022/05/01 10:54:10;;;;;;;3.83;1.35;;;12.30;93.30;;;;;;5046008;28;20064;-73
2022/05/01 10:56:50;;;;;;;2.47;1.17;;;12.40;91.60;;;;;;5048670;28;20474;-73
2022/05/01 10:59:33;;;;;;;2.92;1.77;;;12.50;92.20;;;;;;5060853;28;20032;-73
2022/05/01 11:02:01;;;;;;;2.45;1.40;;;12.60;90.50;;;;;;5045941;28;20450;-73
2022/05/01 11:04:42;;;;;;;2.63;1.33;;;12.60;91.90;;;;;;5062014;28;20045;-73
2022/05/01 11:07:13;;;;;;;2.50;1.17;;;12.60;91.50;;;;;;5042486;28;20040;-73
2022/05/01 11:09:42;;;;;;;1.90;1.20;;;12.70;91.90;;;;;;5051285;28;20171;-73
2022/05/01 11:12:10;;;;;;;2.50;1.23;;;12.70;92.40;;;;;;5066322;28;20063;-73
2022/05/01 11:14:39;;;;;;;3.13;1.50;;;12.80;92.40;;;;;;5065706;28;20041;-73
2022/05/01 11:17:07;;;;;;;1.80;1.05;;;12.90;92.00;;;;;;5064573;28;20040;-73
2022/05/01 11:19:45;;;;;;;2.67;1.30;;;12.90;91.20;;;;;;5039933;28;20036;-73
2022/05/01 11:22:14;;;;;;;1.75;1.05;;;12.90;86.00;;;;;;5059096;28;20071;-74
2022/05/01 11:24:43;;;;;;;1.98;0.95;;;12.80;90.70;;;;;;5059055;28;20041;-73
2022/05/01 11:27:17;;;;;;;2.50;1.10;;;12.80;91.10;;;;;;5046224;28;20028;-73
2022/05/01 11:30:07;;;;;;;2.67;1.48;;;12.80;85.90;;;;;;5063945;28;20093;-73
2022/05/01 11:32:58;;;;;;;2.70;1.10;;;12.70;83.30;;;;;;5049214;28;20056;-74
2022/05/01 11:35:54;;;;;;;3.25;1.40;;;12.70;82.60;;;;;;5059294;28;20032;-73
2022/05/01 11:38:22;;;;;;;2.15;1.10;;;12.70;82.90;;;;;;5061906;28;20699;-74
2022/05/01 11:41:00;;;;;;;2.92;1.58;;;12.70;89.10;;;;;;5047579;28;20142;-73
2022/05/01 11:43:29;;;;;;;2.70;1.17;;;12.70;86.60;;;;;;5066202;28;20033;-73
2022/05/01 11:46:16;;;;;;;1.63;0.85;;;12.80;90.50;;;;;;5062260;28;20036;-73
2022/05/01 11:48:41;;;;;;;2.47;1.10;;;12.80;88.00;;;;;;5049662;28;20040;-73
2022/05/01 11:51:08;;;;;;;2.88;0.95;;;12.90;90.60;;;;;;5063987;28;20374;-74
2022/05/01 11:53:33;;;;;;;1.70;1.10;;;13.00;90.30;;;;;;5064160;28;20040;-73
2022/05/01 12:04:35;;;;;;;3.13;1.40;;;13.20;90.10;;;;;;5060862;28;20040;-73
2022/05/01 12:07:06;;;;;;;3.00;1.38;;;13.20;90.00;;;;;;5060106;28;20490;-73
2022/05/01 12:09:35;;;;;;;3.08;1.23;;;13.20;89.60;;;;;;5062689;28;20035;-73
2022/05/01 12:12:01;;;;;;;2.00;1.10;;;13.30;89.60;;;;;;5039909;28;20054;-73
2022/05/01 12:14:27;;;;;;;2.05;1.02;;;13.30;89.60;;;;;;5055716;28;20036;-73
2022/05/01 12:16:53;;;;;;;5.32;1.40;;;13.30;89.50;;;;;;5058291;28;20043;-73
2022/05/01 12:19:19;;;;;;;2.55;1.55;;;13.30;88.60;;;;;;5059227;28;20044;-73
2022/05/01 12:21:44;;;;;;;2.42;1.20;;;13.40;88.50;;;;;;5043660;28;20123;-73
2022/05/01 12:24:14;;;;;;;3.90;1.38;;;13.40;89.30;;;;;;5059557;28;20127;-73
2022/05/01 12:26:54;;;;;;;2.97;1.30;;;13.40;87.70;;;;;;5059413;28;20123;-73
2022/05/01 12:29:20;;;;;;;1.83;1.05;;;13.40;85.70;;;;;;5041930;28;20548;-73
2022/05/01 12:32:02;;;;;;;2.45;1.30;;;13.40;88.00;;;;;;5043075;28;20036;-73
2022/05/01 12:34:32;;;;;;;2.22;1.20;;;13.40;82.00;;;;;;5052851;28;20041;-73
2022/05/01 12:37:02;;;;;;;1.88;0.88;;;13.30;84.90;;;;;;5031059;28;20064;-73
2022/05/01 12:39:30;;;;;;;2.38;1.13;;;13.30;86.20;;;;;;5047363;28;20091;-73
2022/05/01 12:45:05;;;;;;;3.72;1.15;;;13.30;83.10;;;;;;5066804;28;20520;-73
2022/05/01 12:47:33;;;;;;;4.40;1.33;;;13.30;79.50;;;;;;5066569;28;20040;-73
2022/05/01 12:49:59;;;;;;;2.47;1.20;;;13.30;85.00;;;;;;5051035;28;20260;-73
2022/05/01 12:52:38;;;;;;;2.33;1.15;;;13.40;84.50;;;;;;5067542;28;20539;-73
2022/05/01 12:55:18;;;;;;;2.05;1.10;;;13.40;78.90;;;;;;5066682;28;20024;-73
2022/05/01 12:57:54;;;;;;;2.05;1.08;;;13.50;78.60;;;;;;5050603;28;20032;-73
2022/05/01 13:00:41;;;;;;;1.95;1.20;;;13.50;79.80;;;;;;5048655;28;20041;-73
2022/05/01 13:03:33;;;;;;;2.40;1.20;;;13.60;81.50;;;;;;5066156;28;20045;-73
2022/05/01 13:06:12;;;;;;;2.85;1.35;;;13.70;72.80;;;;;;5067598;28;20048;-73
2022/05/01 13:08:40;;;;;;;3.40;1.27;;;13.70;76.90;;;;;;5066904;28;20048;-73
2022/05/01 13:11:09;;;;;;;2.00;1.00;;;13.70;81.20;;;;;;5065211;28;20037;-73
2022/05/01 13:14:05;;;;;;;1.98;1.08;;;13.70;80.50;;;;;;5066034;28;20155;-73
2022/05/01 13:16:30;;;;;;;3.25;1.30;;;13.60;67.60;;;;;;5048708;28;20053;-73
2022/05/01 13:19:18;;;;;;;2.53;1.27;;;13.50;78.70;;;;;;5067364;28;20046;-73
2022/05/01 13:21:49;;;;;;;2.50;1.10;;;13.40;71.10;;;;;;5067406;28;20048;-73
2022/05/01 13:24:18;;;;;;;2.42;1.20;;;13.20;78.50;;;;;;5066450;28;20051;-73
2022/05/01 13:26:44;;;;;;;2.47;0.82;;;13.20;79.00;;;;;;5049373;28;20047;-73
2022/05/01 13:29:11;;;;;;;2.55;1.42;;;13.10;81.20;;;;;;5065985;28;20131;-73
2022/05/01 13:31:38;;;;;;;2.38;1.40;;;13.10;81.70;;;;;;5047352;28;20063;-73